createdAt,value
2022-08-12T00:02:02.645Z,4.60
2022-08-12T00:04:56.555Z,4.77
2022-08-12T00:07:47.657Z,4.97
2022-08-12T00:10:40.138Z,4.57
2022-08-12T00:13:31.484Z,4.40
2022-08-12T00:16:25.165Z,4.20
2022-08-12T00:19:15.820Z,4.40
2022-08-12T00:22:06.501Z,4.50
2022-08-12T00:24:59.672Z,4.10
2022-08-12T00:27:50.701Z,4.53
2022-08-12T00:30:43.235Z,4.43
2022-08-12T00:33:38.685Z,4.83
2022-08-12T00:36:50.111Z,4.00
2022-08-12T00:39:40.980Z,4.40
2022-08-12T00:42:17.190Z,4.40
2022-08-12T00:44:51.288Z,4.13
2022-08-12T00:47:24.648Z,4.57
2022-08-12T00:50:00.906Z,4.10
2022-08-12T00:52:34.596Z,4.30
2022-08-12T00:55:08.920Z,4.00
2022-08-12T00:57:47.782Z,4.20
2022-08-12T01:00:26.901Z,4.60
2022-08-12T01:03:03.201Z,5.00
2022-08-12T01:05:55.977Z,5.13
2022-08-12T01:08:46.435Z,4.80
2022-08-12T01:11:32.985Z,5.40
2022-08-12T01:14:07.240Z,5.17
2022-08-12T01:16:39.211Z,5.37
2022-08-12T01:19:13.696Z,6.00
2022-08-12T01:22:25.701Z,5.67
2022-08-12T01:25:23.232Z,6.27
2022-08-12T01:27:57.386Z,6.53
2022-08-12T01:30:34.301Z,6.33
2022-08-12T01:33:07.217Z,6.87
2022-08-12T01:35:44.621Z,7.00
2022-08-12T01:38:34.567Z,6.87
2022-08-12T01:41:11.461Z,7.30
2022-08-12T01:43:44.589Z,6.50
2022-08-12T01:46:33.428Z,6.73
2022-08-12T01:49:40.524Z,6.57
2022-08-12T01:52:29.726Z,7.07
2022-08-12T01:55:07.027Z,6.47
2022-08-12T01:58:11.825Z,6.57
2022-08-12T02:00:55.618Z,6.73
2022-08-12T02:03:52.634Z,6.10
2022-08-12T02:06:59.346Z,6.57
2022-08-12T02:10:50.196Z,6.40
2022-08-12T02:13:18.042Z,6.37
2022-08-12T02:16:35.147Z,6.07
2022-08-12T02:19:22.017Z,6.23
2022-08-12T02:22:16.275Z,6.27
2022-08-12T02:24:50.818Z,6.10
2022-08-12T02:27:27.542Z,5.97
2022-08-12T02:29:59.655Z,6.73
2022-08-12T02:32:39.168Z,6.27
2022-08-12T02:35:17.535Z,6.63
2022-08-12T02:37:57.980Z,5.67
2022-08-12T02:40:30.145Z,6.00
2022-08-12T02:43:45.487Z,5.83
2022-08-12T02:46:29.736Z,6.07
2022-08-12T02:49:09.219Z,5.77
2022-08-12T02:51:44.658Z,6.33
2022-08-12T02:54:16.597Z,5.60
2022-08-12T02:56:50.998Z,5.23
2022-08-12T02:59:26.513Z,5.80
2022-08-12T03:02:08.811Z,5.57
2022-08-12T03:04:53.073Z,5.50
2022-08-12T03:07:26.729Z,5.57
2022-08-12T03:10:17.640Z,5.40
2022-08-12T03:12:57.692Z,6.03
2022-08-12T03:15:34.364Z,6.10
2022-08-12T03:18:28.973Z,6.63
2022-08-12T03:21:02.152Z,5.97
2022-08-12T03:23:36.050Z,6.33
2022-08-12T03:26:08.737Z,5.93
2022-08-12T03:28:51.375Z,5.80
2022-08-12T03:31:30.190Z,6.30
2022-08-12T03:34:12.460Z,6.03
2022-08-12T03:36:44.584Z,6.37
2022-08-12T03:39:36.057Z,6.20
2022-08-12T03:42:23.745Z,6.53
2022-08-12T03:45:52.647Z,6.30
2022-08-12T03:48:45.804Z,6.53
2022-08-12T03:51:36.395Z,6.37
2022-08-12T03:54:26.997Z,6.33
2022-08-12T03:57:17.593Z,6.03
2022-08-12T04:00:10.007Z,6.27
2022-08-12T04:02:46.513Z,7.00
2022-08-12T04:05:22.951Z,5.83
2022-08-12T04:08:00.166Z,6.33
2022-08-12T04:10:52.048Z,5.87
2022-08-12T04:13:25.652Z,5.67
2022-08-12T04:15:58.689Z,5.33
2022-08-12T04:18:32.556Z,5.50
2022-08-12T04:21:10.407Z,5.30
2022-08-12T04:23:48.579Z,5.37
2022-08-12T04:26:20.604Z,5.17
2022-08-12T04:28:54.577Z,5.57
2022-08-12T04:31:34.433Z,5.83
2022-08-12T04:34:07.553Z,4.60
2022-08-12T04:36:41.808Z,4.97
2022-08-12T04:39:14.053Z,5.10
2022-08-12T04:41:56.061Z,5.53
2022-08-12T04:44:32.293Z,8.13
2022-08-12T04:47:04.297Z,6.30
2022-08-12T04:49:41.879Z,5.70
2022-08-12T04:52:15.550Z,6.57
2022-08-12T04:54:48.436Z,5.70
2022-08-12T04:57:22.870Z,5.77
2022-08-12T04:59:57.083Z,6.97
2022-08-12T05:02:28.988Z,5.30
2022-08-12T05:05:01.886Z,5.93
2022-08-12T05:07:45.600Z,5.30
2022-08-12T05:10:34.066Z,5.63
2022-08-12T05:13:14.491Z,6.37
2022-08-12T05:16:02.547Z,6.30
2022-08-12T05:18:43.177Z,5.73
2022-08-12T05:21:17.900Z,5.10
2022-08-12T05:23:49.724Z,5.33
2022-08-12T05:26:22.882Z,5.03
2022-08-12T05:28:57.164Z,4.80
2022-08-12T05:31:47.426Z,5.57
2022-08-12T05:34:23.796Z,4.60
2022-08-12T05:36:59.664Z,4.73
2022-08-12T05:39:31.599Z,4.55
2022-08-12T05:42:06.193Z,4.40
2022-08-12T05:44:38.043Z,3.83
2022-08-12T05:47:12.155Z,5.33
2022-08-12T05:49:44.263Z,4.28
2022-08-12T05:52:16.249Z,4.32
2022-08-12T05:54:57.646Z,4.13
2022-08-12T05:57:29.932Z,5.97
2022-08-12T06:00:04.914Z,5.32
2022-08-12T06:02:36.761Z,5.32
2022-08-12T06:05:10.895Z,5.10
2022-08-12T06:08:01.366Z,5.07
2022-08-12T06:10:37.115Z,4.88
2022-08-12T06:13:09.443Z,4.70
2022-08-12T06:15:41.800Z,4.07
2022-08-12T06:18:16.076Z,3.50
2022-08-12T06:20:53.855Z,3.50
2022-08-12T06:23:29.919Z,3.22
2022-08-12T06:26:02.199Z,3.00
2022-08-12T06:28:34.145Z,3.15
2022-08-12T06:35:26.917Z,2.90
2022-08-12T06:36:55.804Z,2.72
2022-08-12T06:39:27.748Z,3.08
2022-08-12T06:42:31.247Z,3.30
2022-08-12T06:45:07.347Z,2.83
2022-08-12T06:47:40.509Z,2.75
2022-08-12T06:50:15.952Z,3.00
2022-08-12T06:52:47.857Z,1.80
2022-08-12T06:55:20.879Z,1.40
2022-08-12T06:58:08.090Z,1.30
2022-08-12T07:00:46.735Z,1.30
2022-08-12T07:03:27.815Z,1.13
2022-08-12T07:06:02.327Z,1.33
2022-08-12T07:08:35.401Z,1.20
2022-08-12T07:11:09.449Z,1.35
2022-08-12T07:14:02.501Z,1.15
2022-08-12T07:16:55.750Z,1.15
2022-08-12T07:19:40.462Z,1.10
2022-08-12T07:22:17.897Z,0.82
2022-08-12T07:25:09.759Z,1.13
2022-08-12T07:27:45.640Z,1.10
2022-08-12T07:30:20.060Z,1.08
2022-08-12T07:32:57.440Z,1.35
2022-08-12T07:35:35.699Z,1.30
2022-08-12T07:38:30.710Z,1.73
2022-08-12T07:41:08.437Z,1.33
2022-08-12T07:44:04.369Z,1.20
2022-08-12T07:46:41.933Z,0.90
2022-08-12T07:49:15.795Z,1.20
2022-08-12T07:51:49.883Z,1.23
2022-08-12T07:54:21.818Z,1.60
2022-08-12T07:56:54.067Z,1.08
2022-08-12T07:59:26.156Z,1.27
2022-08-12T08:02:02.266Z,1.40
2022-08-12T08:04:52.756Z,1.58
2022-08-12T08:07:30.763Z,1.30
2022-08-12T08:10:10.982Z,1.40
2022-08-12T08:12:58.889Z,1.05
2022-08-12T08:16:01.062Z,1.30
2022-08-12T08:18:28.979Z,1.25
2022-08-12T08:21:00.943Z,1.27
2022-08-12T08:23:56.238Z,1.10
2022-08-12T08:26:29.386Z,0.90
2022-08-12T08:29:01.257Z,0.90
2022-08-12T08:31:33.145Z,1.45
2022-08-12T08:34:33.218Z,1.20
2022-08-12T08:36:59.397Z,1.15
2022-08-12T08:39:39.262Z,0.90
2022-08-12T08:42:29.936Z,1.00
2022-08-12T08:45:13.031Z,1.00
2022-08-12T08:47:48.970Z,1.20
2022-08-12T08:50:20.999Z,0.85
2022-08-12T08:52:53.958Z,0.85
2022-08-12T08:55:42.428Z,0.70
2022-08-12T08:58:21.275Z,0.90
2022-08-12T09:00:56.395Z,1.17
2022-08-12T09:05:08.963Z,1.25
2022-08-12T09:06:37.337Z,0.77
2022-08-12T09:09:13.244Z,0.60
2022-08-12T09:12:10.640Z,0.70
2022-08-12T09:14:58.946Z,0.50
2022-08-12T09:17:42.186Z,0.65
2022-08-12T09:20:17.701Z,0.82
2022-08-12T09:22:50.359Z,0.75
2022-08-12T09:25:33.162Z,0.80
2022-08-12T09:28:18.418Z,1.10
2022-08-12T09:30:57.320Z,0.93
2022-08-12T09:34:29.178Z,0.90
2022-08-12T09:36:31.393Z,0.80
2022-08-12T09:39:57.883Z,0.70
2022-08-12T09:42:57.820Z,0.70
2022-08-12T09:46:19.336Z,1.13
2022-08-12T09:48:39.901Z,0.95
2022-08-12T09:51:22.491Z,0.82
2022-08-12T09:54:08.638Z,1.15
2022-08-12T09:57:02.600Z,1.27
2022-08-12T10:00:16.042Z,2.03
2022-08-12T10:02:41.839Z,2.63
2022-08-12T10:05:20.568Z,2.33
2022-08-12T10:07:55.561Z,1.52
2022-08-12T10:10:28.724Z,1.60
2022-08-12T10:13:41.968Z,1.77
2022-08-12T10:16:22.478Z,1.60
2022-08-12T10:18:57.588Z,1.13
2022-08-12T10:21:37.547Z,1.20
2022-08-12T10:24:21.454Z,1.30
2022-08-12T10:27:14.177Z,1.10
2022-08-12T10:30:03.333Z,1.20
2022-08-12T10:32:44.545Z,1.20
2022-08-12T10:35:25.852Z,0.90
2022-08-12T10:38:34.771Z,1.10
2022-08-12T10:41:13.035Z,1.05
2022-08-12T10:43:54.432Z,1.48
2022-08-12T10:46:31.051Z,1.70
2022-08-12T10:49:07.073Z,1.13
2022-08-12T10:52:33.143Z,1.05
2022-08-12T10:54:51.180Z,1.48
2022-08-12T10:58:15.375Z,1.05
2022-08-12T11:00:30.604Z,1.17
2022-08-12T11:04:26.564Z,1.40
2022-08-12T11:07:06.267Z,1.15
2022-08-12T11:08:52.297Z,1.20
2022-08-12T11:12:36.588Z,1.38
2022-08-12T11:14:50.486Z,1.48
2022-08-12T11:17:42.844Z,1.00
2022-08-12T11:20:15.212Z,1.20
2022-08-12T11:23:03.788Z,0.98
2022-08-12T11:25:57.278Z,1.10
2022-08-12T11:28:34.647Z,1.08
2022-08-12T11:31:10.070Z,1.00
2022-08-12T11:34:05.620Z,1.10
2022-08-12T11:36:39.503Z,1.00
2022-08-12T11:39:14.792Z,0.80
2022-08-12T11:41:55.545Z,1.25
2022-08-12T11:44:36.664Z,0.82
2022-08-12T11:47:17.245Z,0.90
2022-08-12T11:49:51.885Z,0.80
2022-08-12T11:52:53.887Z,0.80
2022-08-12T11:55:15.959Z,0.75
2022-08-12T11:58:14.621Z,0.90
2022-08-12T12:03:46.501Z,0.90
2022-08-12T12:06:20.976Z,1.08
2022-08-12T12:08:55.009Z,0.90
2022-08-12T12:11:48.885Z,0.85
2022-08-12T12:14:21.129Z,0.88
2022-08-12T12:17:10.193Z,0.80
2022-08-12T12:19:46.353Z,0.95
2022-08-12T12:22:23.384Z,0.88
2022-08-12T12:24:59.499Z,0.85
2022-08-12T12:28:05.704Z,1.00
2022-08-12T12:30:54.736Z,0.80
2022-08-12T12:33:56.951Z,1.02
2022-08-12T12:36:24.062Z,0.80
2022-08-12T12:39:01.809Z,0.85
2022-08-12T12:42:40.583Z,0.80
2022-08-12T12:44:41.934Z,0.80
2022-08-12T12:47:29.100Z,1.10
2022-08-12T12:50:02.002Z,0.80
2022-08-12T12:52:38.109Z,0.80
2022-08-12T12:55:15.526Z,1.00
2022-08-12T12:58:00.204Z,0.98
2022-08-12T13:00:33.329Z,0.82
2022-08-12T13:03:05.214Z,0.98
2022-08-12T13:05:42.631Z,0.90
2022-08-12T13:08:28.034Z,0.90
2022-08-12T13:11:08.186Z,0.90
2022-08-12T13:14:08.906Z,0.95
2022-08-12T13:16:33.827Z,0.70
2022-08-12T13:19:05.757Z,0.90
2022-08-12T13:22:02.192Z,1.10
2022-08-12T13:24:36.513Z,0.90
2022-08-12T13:27:08.369Z,0.80
2022-08-12T13:29:40.245Z,0.82
2022-08-12T13:32:19.125Z,0.73
2022-08-12T13:35:19.951Z,1.00
2022-08-12T13:37:58.020Z,1.05
2022-08-12T13:40:32.155Z,0.90
2022-08-12T13:43:06.969Z,0.73
2022-08-12T13:45:38.919Z,0.85
2022-08-12T13:48:13.412Z,1.13
2022-08-12T13:50:57.724Z,0.80
2022-08-12T13:53:39.941Z,0.80
2022-08-12T13:56:24.827Z,0.90
2022-08-12T13:59:07.928Z,1.23
2022-08-12T14:01:41.123Z,1.40
2022-08-12T14:04:15.388Z,1.10
2022-08-12T14:06:50.494Z,0.95
2022-08-12T14:09:22.438Z,1.15
2022-08-12T14:11:59.421Z,1.27
2022-08-12T14:14:35.690Z,1.00
2022-08-12T14:17:10.194Z,1.13
2022-08-12T14:20:04.591Z,0.77
2022-08-12T14:22:38.149Z,0.90
2022-08-12T14:25:16.923Z,0.75
2022-08-12T14:28:05.801Z,1.10
2022-08-12T14:31:07.069Z,0.60
2022-08-12T14:33:52.746Z,1.10
2022-08-12T14:36:28.493Z,0.80
2022-08-12T14:39:02.442Z,0.80
2022-08-12T14:41:37.144Z,0.90
2022-08-12T14:44:57.761Z,0.90
2022-08-12T14:47:14.436Z,0.90
2022-08-12T14:50:41.276Z,1.05
2022-08-12T14:58:31.850Z,0.75
2022-08-12T15:01:25.271Z,0.60
2022-08-12T15:04:02.304Z,0.70
2022-08-12T15:06:44.454Z,0.90
2022-08-12T15:09:28.791Z,0.90
2022-08-12T15:12:03.842Z,0.80
2022-08-12T15:14:39.501Z,0.80
2022-08-12T15:17:37.542Z,0.93
2022-08-12T15:20:31.107Z,0.90
2022-08-12T15:23:02.625Z,1.08
2022-08-12T15:25:40.346Z,0.70
2022-08-12T15:28:24.414Z,1.00
2022-08-12T15:31:03.304Z,1.00
2022-08-12T15:33:53.411Z,1.13
2022-08-12T15:36:54.338Z,1.20
2022-08-12T15:39:21.049Z,1.10
2022-08-12T15:41:55.546Z,0.90
2022-08-12T15:44:38.207Z,1.60
2022-08-12T15:47:16.391Z,1.90
2022-08-12T15:50:00.360Z,1.30
2022-08-12T15:52:35.180Z,1.40
2022-08-12T15:55:11.619Z,1.50
2022-08-12T15:57:53.504Z,1.40
2022-08-12T16:00:32.919Z,1.60
2022-08-12T16:03:13.566Z,1.27
2022-08-12T16:06:12.195Z,1.30
2022-08-12T16:08:40.821Z,1.60
2022-08-12T16:11:16.094Z,1.33
2022-08-12T16:13:52.068Z,1.40
2022-08-12T16:16:25.065Z,1.58
2022-08-12T16:19:09.013Z,1.50
2022-08-12T16:21:58.241Z,1.40
2022-08-12T16:24:34.975Z,1.45
2022-08-12T16:27:11.232Z,1.25
2022-08-12T16:29:53.075Z,1.20
2022-08-12T16:32:36.041Z,1.10
2022-08-12T16:35:16.146Z,1.38
2022-08-12T16:38:24.808Z,1.35
2022-08-12T16:40:46.350Z,1.20
2022-08-12T16:43:33.489Z,1.27
2022-08-12T16:46:31.589Z,1.20
2022-08-12T16:49:08.589Z,1.25
2022-08-12T16:51:46.018Z,1.30
2022-08-12T16:54:26.587Z,1.02
2022-08-12T16:57:13.587Z,1.23
2022-08-12T16:59:54.492Z,1.50
2022-08-12T17:02:34.050Z,1.13
2022-08-12T17:05:08.001Z,1.42
2022-08-12T17:07:47.199Z,1.38
2022-08-12T17:10:35.993Z,1.25
2022-08-12T17:13:10.705Z,1.20
2022-08-12T17:15:57.838Z,1.45
2022-08-12T17:18:45.517Z,1.40
2022-08-12T17:21:30.045Z,1.05
2022-08-12T17:24:17.204Z,1.20
2022-08-12T17:26:53.825Z,1.30
2022-08-12T17:30:01.150Z,1.20
2022-08-12T17:32:28.351Z,1.30
2022-08-12T17:35:21.828Z,1.23
2022-08-12T17:38:06.326Z,1.13
2022-08-12T17:40:38.531Z,1.10
2022-08-12T17:43:56.902Z,1.40
2022-08-12T17:46:13.109Z,1.00
2022-08-12T17:48:57.724Z,1.25
2022-08-12T17:51:31.359Z,0.90
2022-08-12T17:54:10.543Z,1.02
2022-08-12T17:56:44.866Z,1.10
2022-08-12T17:59:27.427Z,1.05
2022-08-12T18:02:14.416Z,1.48
2022-08-12T18:05:05.111Z,1.35
2022-08-12T18:07:39.274Z,1.23
2022-08-12T18:10:13.071Z,1.50
2022-08-12T18:12:52.338Z,1.20
2022-08-12T18:15:26.471Z,1.40
2022-08-12T18:18:19.481Z,1.40
2022-08-12T18:20:54.357Z,1.10
2022-08-12T18:23:28.091Z,1.35
2022-08-12T18:26:21.370Z,1.40
2022-08-12T18:28:56.774Z,1.35
2022-08-12T18:31:44.787Z,1.40
2022-08-12T18:34:27.595Z,1.38
2022-08-12T18:37:16.381Z,1.40
2022-08-12T18:40:10.714Z,1.10
2022-08-12T18:42:54.113Z,1.50
2022-08-12T18:45:31.664Z,1.10
2022-08-12T18:48:21.000Z,1.88
2022-08-12T18:51:05.922Z,1.60
2022-08-12T18:54:07.374Z,1.77
2022-08-12T18:56:37.016Z,1.55
2022-08-12T19:00:00.165Z,1.40
2022-08-12T19:02:20.534Z,1.42
2022-08-12T19:04:54.390Z,1.45
2022-08-12T19:07:50.162Z,1.38
2022-08-12T19:10:23.446Z,1.20
2022-08-12T19:13:23.094Z,1.60
2022-08-12T19:15:57.977Z,1.45
2022-08-12T19:18:40.396Z,1.60
2022-08-12T19:21:16.776Z,1.58
2022-08-12T19:24:11.892Z,1.80
2022-08-12T19:26:44.265Z,1.50
2022-08-12T19:29:19.962Z,1.52
2022-08-12T19:31:57.430Z,1.42
2022-08-12T19:38:04.513Z,1.55
2022-08-12T19:40:34.982Z,1.80
2022-08-12T19:43:19.744Z,1.42
2022-08-12T19:45:56.462Z,1.50
2022-08-12T19:48:30.739Z,1.30
2022-08-12T19:51:24.636Z,1.30
2022-08-12T19:53:59.534Z,1.30
2022-08-12T19:56:32.460Z,1.98
2022-08-12T19:59:23.238Z,1.50
2022-08-12T20:02:02.355Z,1.60
2022-08-12T20:04:37.765Z,2.10
2022-08-12T20:07:23.960Z,1.65
2022-08-12T20:09:57.063Z,1.75
2022-08-12T20:12:34.529Z,1.70
2022-08-12T20:15:10.620Z,1.85
2022-08-12T20:17:50.934Z,2.17
2022-08-12T20:20:28.211Z,1.65
2022-08-12T20:23:00.634Z,1.88
2022-08-12T20:25:52.810Z,1.60
2022-08-12T20:28:30.558Z,1.38
2022-08-12T20:31:02.908Z,2.00
2022-08-12T20:33:56.016Z,1.90
2022-08-12T20:36:42.837Z,2.00
2022-08-12T20:39:33.823Z,1.90
2022-08-12T20:42:10.628Z,1.65
2022-08-12T20:44:44.999Z,1.65
2022-08-12T20:47:19.889Z,1.63
2022-08-12T20:49:54.804Z,2.05
2022-08-12T20:52:30.537Z,2.17
2022-08-12T20:55:15.893Z,1.95
2022-08-12T20:58:02.938Z,2.72
2022-08-12T21:00:36.996Z,1.77
2022-08-12T21:03:29.057Z,1.88
2022-08-12T21:06:22.350Z,2.15
2022-08-12T21:09:01.510Z,1.95
2022-08-12T21:11:36.616Z,2.35
2022-08-12T21:14:13.441Z,2.30
2022-08-12T21:16:52.443Z,2.28
2022-08-12T21:19:24.629Z,1.65
2022-08-12T21:22:24.879Z,1.80
2022-08-12T21:24:57.054Z,2.10
2022-08-12T21:27:59.430Z,1.80
2022-08-12T21:30:27.371Z,1.90
2022-08-12T21:33:10.570Z,1.63
2022-08-12T21:35:50.551Z,2.08
2022-08-12T21:38:22.478Z,1.95
2022-08-12T21:40:55.946Z,2.13
2022-08-12T21:43:28.970Z,2.10
2022-08-12T21:46:34.485Z,2.00
2022-08-12T21:49:09.640Z,2.28
2022-08-12T21:51:50.316Z,1.90
2022-08-12T21:54:32.753Z,2.22
2022-08-12T21:57:08.995Z,2.60
2022-08-12T21:59:42.263Z,2.50
2022-08-12T22:02:33.480Z,2.40
2022-08-12T22:05:24.315Z,2.15
2022-08-12T22:07:58.499Z,2.20
2022-08-12T22:10:30.388Z,1.85
2022-08-12T22:13:02.255Z,2.20
2022-08-12T22:15:34.175Z,2.38
2022-08-12T22:18:07.539Z,2.20
2022-08-12T22:20:46.872Z,2.20
2022-08-12T22:23:21.774Z,1.95
2022-08-12T22:26:00.443Z,2.53
2022-08-12T22:28:57.259Z,2.00
2022-08-12T22:31:30.100Z,2.10
2022-08-12T22:34:03.494Z,2.20
2022-08-12T22:36:36.100Z,2.25
2022-08-12T22:39:11.652Z,2.00
2022-08-12T22:42:08.451Z,2.20
2022-08-12T22:44:59.001Z,2.25
2022-08-12T22:47:53.602Z,2.40
2022-08-12T22:50:32.526Z,2.70
2022-08-12T22:53:17.057Z,3.03
2022-08-12T22:56:00.649Z,2.42
2022-08-12T22:58:41.481Z,2.50
2022-08-12T23:01:21.549Z,2.78
2022-08-12T23:04:15.588Z,2.35
2022-08-12T23:07:05.502Z,2.40
2022-08-12T23:09:48.286Z,2.60
2022-08-12T23:12:46.497Z,2.65
2022-08-12T23:15:21.780Z,2.50
2022-08-12T23:17:57.846Z,2.72
2022-08-12T23:20:29.709Z,2.80
2022-08-12T23:23:05.654Z,2.30
2022-08-12T23:25:54.649Z,2.65
2022-08-12T23:28:52.528Z,2.58
2022-08-12T23:31:30.362Z,2.60
2022-08-12T23:34:18.065Z,2.85
2022-08-12T23:36:52.566Z,2.53
2022-08-12T23:40:13.643Z,2.80
2022-08-12T23:42:19.479Z,2.85
2022-08-12T23:44:53.811Z,2.83
2022-08-12T23:47:28.470Z,3.00
2022-08-12T23:50:03.136Z,2.75
2022-08-12T23:52:41.597Z,2.40
2022-08-12T23:55:23.900Z,2.80
2022-08-12T23:58:21.799Z,2.60
